createdAt,value
2017-05-31T00:02:19.196Z,98990
2017-05-31T00:04:48.051Z,98998
2017-05-31T00:07:16.905Z,98996
2017-05-31T00:09:45.759Z,98994
2017-05-31T00:12:14.604Z,98992
2017-05-31T00:14:43.451Z,98996
2017-05-31T00:17:12.307Z,98998
2017-05-31T00:19:40.387Z,99004
2017-05-31T00:22:09.235Z,99005
2017-05-31T00:24:38.075Z,99010
2017-05-31T00:27:06.960Z,99007
2017-05-31T00:29:35.032Z,99001
2017-05-31T00:32:03.915Z,99005
2017-05-31T00:34:32.767Z,99003
2017-05-31T00:37:01.607Z,99003
2017-05-31T00:39:30.465Z,99001
2017-05-31T00:41:58.543Z,99009
2017-05-31T00:44:27.416Z,98998
2017-05-31T00:46:56.266Z,99007
2017-05-31T00:49:25.107Z,99017
2017-05-31T00:51:53.955Z,99028
2017-05-31T00:54:22.810Z,99024
2017-05-31T00:56:50.894Z,99030
2017-05-31T00:59:19.759Z,99032
2017-05-31T01:01:48.611Z,99038
2017-05-31T01:04:17.461Z,99041
2017-05-31T01:06:46.297Z,99034
2017-05-31T01:09:15.147Z,99040
2017-05-31T01:11:43.995Z,99033
2017-05-31T01:14:12.839Z,99031
2017-05-31T01:16:41.692Z,99033
2017-05-31T01:19:10.555Z,99042
2017-05-31T01:21:39.395Z,99025
2017-05-31T01:24:08.239Z,99031
2017-05-31T01:26:37.091Z,99039
2017-05-31T01:29:05.948Z,99049
2017-05-31T01:31:34.805Z,99053
2017-05-31T01:34:03.641Z,99056
2017-05-31T01:36:32.521Z,99057
2017-05-31T01:39:00.596Z,99051
2017-05-31T01:41:29.540Z,99054
2017-05-31T01:43:58.408Z,99042
2017-05-31T01:46:27.252Z,99040
2017-05-31T01:48:55.344Z,99040
2017-05-31T01:51:24.199Z,99050
2017-05-31T01:53:53.056Z,99041
2017-05-31T01:56:21.908Z,99037
2017-05-31T01:58:50.757Z,99042
2017-05-31T02:01:19.603Z,99052
2017-05-31T02:03:47.699Z,99048
2017-05-31T02:06:16.555Z,99052
2017-05-31T02:08:44.628Z,99054
2017-05-31T02:11:13.487Z,99054
2017-05-31T02:13:42.356Z,99050
2017-05-31T02:16:11.200Z,99057
2017-05-31T02:18:39.284Z,99049
2017-05-31T02:21:08.132Z,99047
2017-05-31T02:23:36.975Z,99053
2017-05-31T02:26:05.839Z,99048
2017-05-31T02:28:33.947Z,99052
2017-05-31T02:31:02.797Z,99053
2017-05-31T02:33:30.880Z,99063
2017-05-31T02:35:59.727Z,99068
2017-05-31T02:38:28.584Z,99065
2017-05-31T02:40:56.683Z,99064
2017-05-31T02:43:25.523Z,99072
2017-05-31T02:45:54.388Z,99072
2017-05-31T02:48:23.232Z,99077
2017-05-31T02:50:52.071Z,99073
2017-05-31T02:53:20.923Z,99080
2017-05-31T02:55:49.781Z,99083
2017-05-31T02:58:17.863Z,99086
2017-05-31T03:00:46.722Z,99088
2017-05-31T03:03:15.589Z,99086
2017-05-31T03:05:44.451Z,99080
2017-05-31T03:08:13.287Z,99083
2017-05-31T03:10:42.139Z,99095
2017-05-31T03:13:11.003Z,99090
2017-05-31T03:15:39.843Z,99096
2017-05-31T03:18:08.696Z,99089
2017-05-31T03:20:37.567Z,99092
2017-05-31T03:23:06.412Z,99093
2017-05-31T03:25:35.259Z,99102
2017-05-31T03:28:03.343Z,99098
2017-05-31T03:30:32.188Z,99108
2017-05-31T03:33:01.040Z,99107
2017-05-31T03:35:29.892Z,99109
2017-05-31T03:37:58.755Z,99114
2017-05-31T03:40:27.596Z,99113
2017-05-31T03:42:56.563Z,99115
2017-05-31T03:45:25.419Z,99114
2017-05-31T03:47:54.260Z,99120
2017-05-31T03:50:23.120Z,99129
2017-05-31T03:52:51.969Z,99127
2017-05-31T03:55:20.839Z,99137
2017-05-31T03:57:49.688Z,99143
2017-05-31T04:00:18.600Z,99145
2017-05-31T04:02:47.503Z,99143
2017-05-31T04:05:16.371Z,99145
2017-05-31T04:07:45.372Z,99150
2017-05-31T04:10:14.223Z,99147
2017-05-31T04:12:43.084Z,99156
2017-05-31T04:15:11.948Z,99158
2017-05-31T04:17:40.802Z,99159
2017-05-31T04:20:09.664Z,99151
2017-05-31T04:22:38.829Z,99164
2017-05-31T04:25:07.704Z,99165
2017-05-31T04:27:36.546Z,99175
2017-05-31T04:30:05.415Z,99166
2017-05-31T04:32:34.298Z,99174
2017-05-31T04:35:03.150Z,99176
2017-05-31T04:37:31.996Z,99182
2017-05-31T04:40:00.840Z,99185
2017-05-31T04:42:29.687Z,99183
2017-05-31T04:44:58.543Z,99187
2017-05-31T04:47:26.654Z,99187
2017-05-31T04:49:56.406Z,99193
2017-05-31T04:52:25.252Z,99202
2017-05-31T04:54:54.108Z,99206
2017-05-31T04:57:22.956Z,99202
2017-05-31T04:59:52.179Z,99203
2017-05-31T05:02:21.020Z,99212
2017-05-31T05:04:49.954Z,99212
2017-05-31T05:07:18.760Z,99209
2017-05-31T05:09:46.839Z,99218
2017-05-31T05:12:15.698Z,99216
2017-05-31T05:14:44.546Z,99216
2017-05-31T05:17:12.631Z,99222
2017-05-31T05:19:41.623Z,99215
2017-05-31T05:22:10.504Z,99225
2017-05-31T05:24:39.352Z,99224
2017-05-31T05:27:08.199Z,99229
2017-05-31T05:29:37.051Z,99233
2017-05-31T05:32:05.896Z,99237
2017-05-31T05:34:34.747Z,99242
2017-05-31T05:37:03.606Z,99246
2017-05-31T05:39:32.455Z,99239
2017-05-31T05:42:01.327Z,99240
2017-05-31T05:44:30.171Z,99245
2017-05-31T05:46:59.032Z,99248
2017-05-31T05:49:27.879Z,99249
2017-05-31T05:51:56.744Z,99247
2017-05-31T05:54:25.603Z,99245
2017-05-31T05:56:54.488Z,99261
2017-05-31T05:59:23.344Z,99261
2017-05-31T06:01:52.196Z,99253
2017-05-31T06:04:21.061Z,99273
2017-05-31T06:06:49.926Z,99260
2017-05-31T06:09:18.019Z,99271
2017-05-31T06:11:46.874Z,99275
2017-05-31T06:14:15.755Z,99275
2017-05-31T06:16:44.606Z,99281
2017-05-31T06:19:13.453Z,99288
2017-05-31T06:21:42.334Z,99281
2017-05-31T06:24:11.176Z,99287
2017-05-31T06:26:40.030Z,99287
2017-05-31T06:29:08.878Z,99297
2017-05-31T06:31:37.750Z,99296
2017-05-31T06:34:06.604Z,99290
2017-05-31T06:36:35.452Z,99284
2017-05-31T06:39:04.308Z,99288
2017-05-31T06:41:33.152Z,99294
2017-05-31T06:44:02.007Z,99276
2017-05-31T06:46:30.951Z,99293
2017-05-31T06:48:59.815Z,99287
2017-05-31T06:51:28.700Z,99288
2017-05-31T06:53:57.544Z,99288
2017-05-31T06:56:26.405Z,99293
2017-05-31T06:58:54.503Z,99299
2017-05-31T07:01:23.363Z,99294
2017-05-31T07:03:52.216Z,99310
2017-05-31T07:06:21.080Z,99304
2017-05-31T07:08:49.937Z,99296
2017-05-31T07:11:18.815Z,99305
2017-05-31T07:13:47.684Z,99307
2017-05-31T07:16:16.537Z,99299
2017-05-31T07:18:45.392Z,99310
2017-05-31T07:21:14.252Z,99312
2017-05-31T07:23:43.116Z,99318
2017-05-31T07:26:11.997Z,99309
2017-05-31T07:28:40.880Z,99314
2017-05-31T07:31:09.789Z,99310
2017-05-31T07:33:38.657Z,99299
2017-05-31T07:36:07.525Z,99308
2017-05-31T07:38:36.372Z,99316
2017-05-31T07:41:05.241Z,99314
2017-05-31T07:43:33.332Z,99318
2017-05-31T07:46:02.221Z,99315
2017-05-31T07:48:31.081Z,99314
2017-05-31T07:50:59.192Z,99312
2017-05-31T07:53:28.054Z,99307
2017-05-31T07:55:56.919Z,99322
2017-05-31T07:58:25.796Z,99323
2017-05-31T08:00:54.651Z,99320
2017-05-31T08:03:23.515Z,99324
2017-05-31T08:05:52.380Z,99319
2017-05-31T08:08:21.232Z,99320
2017-05-31T08:10:50.093Z,99313
2017-05-31T08:13:18.953Z,99311
2017-05-31T08:15:47.796Z,99320
2017-05-31T08:18:15.884Z,99310
2017-05-31T08:20:44.728Z,99321
2017-05-31T08:23:12.824Z,99316
2017-05-31T08:25:41.676Z,99308
2017-05-31T08:28:10.563Z,99313
2017-05-31T08:30:39.420Z,99310
2017-05-31T08:33:08.273Z,99305
2017-05-31T08:35:37.131Z,99312
2017-05-31T08:38:05.987Z,99314
2017-05-31T08:40:34.844Z,99311
2017-05-31T08:43:03.691Z,99315
2017-05-31T08:45:32.568Z,99310
2017-05-31T08:48:01.412Z,99313
2017-05-31T08:50:29.509Z,99309
2017-05-31T08:52:58.378Z,99299
2017-05-31T08:55:27.220Z,99314
2017-05-31T08:57:56.076Z,99311
2017-05-31T09:00:24.929Z,99295
2017-05-31T09:02:53.814Z,99296
2017-05-31T09:05:22.656Z,99304
2017-05-31T09:07:51.503Z,99299
2017-05-31T09:10:19.601Z,99308
2017-05-31T09:12:48.448Z,99296
2017-05-31T09:15:17.297Z,99305
2017-05-31T09:17:46.144Z,99304
2017-05-31T09:20:15.042Z,99295
2017-05-31T09:22:43.910Z,99299
2017-05-31T09:25:12.758Z,99297
2017-05-31T09:27:41.708Z,99296
2017-05-31T09:30:10.581Z,99312
2017-05-31T09:32:39.436Z,99294
2017-05-31T09:35:08.288Z,99307
2017-05-31T09:37:37.172Z,99309
2017-05-31T09:40:06.025Z,99306
2017-05-31T09:42:34.873Z,99304
2017-05-31T09:45:03.759Z,99295
2017-05-31T09:47:31.831Z,99292
2017-05-31T09:50:00.688Z,99289
2017-05-31T09:52:29.621Z,99289
2017-05-31T09:54:58.487Z,99290
2017-05-31T09:57:27.343Z,99291
2017-05-31T09:59:56.197Z,99289
2017-05-31T10:02:24.283Z,99285
2017-05-31T10:04:53.135Z,99295
2017-05-31T10:07:21.975Z,99287
2017-05-31T10:09:50.840Z,99304
2017-05-31T10:12:19.700Z,99297
2017-05-31T10:14:48.548Z,99293
2017-05-31T10:17:17.392Z,99292
2017-05-31T10:19:46.240Z,99291
2017-05-31T10:22:15.084Z,99299
2017-05-31T10:24:43.932Z,99292
2017-05-31T10:27:12.773Z,99290
2017-05-31T10:29:40.872Z,99296
2017-05-31T10:32:09.728Z,99294
2017-05-31T10:34:39.455Z,99304
2017-05-31T10:37:08.328Z,99288
2017-05-31T10:39:36.405Z,99291
2017-05-31T10:42:05.260Z,99292
2017-05-31T10:44:34.108Z,99287
2017-05-31T10:47:02.956Z,99287
2017-05-31T10:49:31.804Z,99292
2017-05-31T10:52:00.657Z,99289
2017-05-31T10:54:29.504Z,99291
2017-05-31T10:56:58.355Z,99299
2017-05-31T10:59:27.203Z,99297
2017-05-31T11:01:56.047Z,99289
2017-05-31T11:04:24.908Z,99282
2017-05-31T11:06:52.984Z,99289
2017-05-31T11:09:21.861Z,99283
2017-05-31T11:11:50.695Z,99293
2017-05-31T11:14:19.551Z,99295
2017-05-31T11:16:48.401Z,99292
2017-05-31T11:19:17.247Z,99287
2017-05-31T11:21:45.335Z,99283
2017-05-31T11:24:14.176Z,99284
2017-05-31T11:26:43.024Z,99285
2017-05-31T11:29:11.869Z,99283
2017-05-31T11:31:39.972Z,99276
2017-05-31T11:34:08.825Z,99287
2017-05-31T11:36:37.659Z,99284
2017-05-31T11:39:06.515Z,99276
2017-05-31T11:41:35.364Z,99289
2017-05-31T11:44:04.215Z,99273
2017-05-31T11:46:33.065Z,99276
2017-05-31T11:49:01.907Z,99275
2017-05-31T11:51:30.755Z,99276
2017-05-31T11:53:59.643Z,99275
2017-05-31T11:56:28.533Z,99275
2017-05-31T11:58:57.366Z,99275
2017-05-31T12:01:26.220Z,99271
2017-05-31T12:03:55.780Z,99268
2017-05-31T12:06:24.807Z,99263
2017-05-31T12:08:53.653Z,99267
2017-05-31T12:11:22.508Z,99250
2017-05-31T12:13:51.347Z,99252
2017-05-31T12:16:20.224Z,99244
2017-05-31T12:18:49.081Z,99246
2017-05-31T12:21:17.155Z,99246
2017-05-31T12:23:46.008Z,99240
2017-05-31T12:26:14.848Z,99239
2017-05-31T12:28:43.711Z,99238
2017-05-31T12:31:12.550Z,99242
2017-05-31T12:33:41.391Z,99236
2017-05-31T12:36:10.236Z,99245
2017-05-31T12:38:39.116Z,99240
2017-05-31T12:41:07.191Z,99246
2017-05-31T12:43:36.039Z,99242
2017-05-31T12:46:04.917Z,99239
2017-05-31T12:48:33.755Z,99248
2017-05-31T12:51:02.608Z,99234
2017-05-31T12:53:31.443Z,99230
2017-05-31T12:56:00.292Z,99239
2017-05-31T12:58:29.138Z,99233
2017-05-31T13:00:58.010Z,99225
2017-05-31T13:03:26.867Z,99233
2017-05-31T13:05:55.704Z,99230
2017-05-31T13:08:24.556Z,99230
2017-05-31T13:10:52.654Z,99232
2017-05-31T13:13:21.511Z,99234
2017-05-31T13:15:50.347Z,99230
2017-05-31T13:18:19.230Z,99231
2017-05-31T13:20:48.076Z,99223
2017-05-31T13:23:16.915Z,99219
2017-05-31T13:25:45.780Z,99216
2017-05-31T13:28:13.851Z,99207
2017-05-31T13:30:42.712Z,99200
2017-05-31T13:33:11.549Z,99209
2017-05-31T13:35:40.400Z,99205
2017-05-31T13:38:09.241Z,99209
2017-05-31T13:40:38.128Z,99202
2017-05-31T13:43:06.971Z,99195
2017-05-31T13:45:35.812Z,99198
2017-05-31T13:48:04.672Z,99194
2017-05-31T13:50:32.747Z,99193
2017-05-31T13:53:01.717Z,99203
2017-05-31T13:55:30.561Z,99192
2017-05-31T13:57:59.417Z,99206
2017-05-31T14:00:27.497Z,99186
2017-05-31T14:02:56.368Z,99189
2017-05-31T14:05:25.220Z,99193
2017-05-31T14:07:54.069Z,99180
2017-05-31T14:10:22.925Z,99188
2017-05-31T14:12:51.764Z,99191
2017-05-31T14:15:20.619Z,99196
2017-05-31T14:17:49.476Z,99193
2017-05-31T14:20:18.324Z,99189
2017-05-31T14:22:46.407Z,99181
2017-05-31T14:25:15.269Z,99182
2017-05-31T14:27:44.117Z,99183
2017-05-31T14:30:12.997Z,99167
2017-05-31T14:32:41.845Z,99180
2017-05-31T14:35:10.713Z,99177
2017-05-31T14:37:39.551Z,99169
2017-05-31T14:40:09.588Z,99178
2017-05-31T14:42:38.437Z,99180
2017-05-31T14:45:07.275Z,99187
2017-05-31T14:47:36.152Z,99180
2017-05-31T14:50:04.990Z,99183
2017-05-31T14:52:33.875Z,99176
2017-05-31T14:55:02.724Z,99176
2017-05-31T14:57:31.599Z,99181
2017-05-31T15:00:00.440Z,99183
2017-05-31T15:02:29.284Z,99192
2017-05-31T15:04:58.152Z,99188
2017-05-31T15:07:26.987Z,99190
2017-05-31T15:09:55.849Z,99174
2017-05-31T15:12:24.687Z,99173
2017-05-31T15:14:53.539Z,99172
2017-05-31T15:17:22.442Z,99174
2017-05-31T15:19:51.410Z,99171
2017-05-31T15:22:19.481Z,99163
2017-05-31T15:24:48.337Z,99170
2017-05-31T15:27:17.187Z,99162
2017-05-31T15:29:46.031Z,99168
2017-05-31T15:32:14.879Z,99172
2017-05-31T15:34:43.723Z,99164
2017-05-31T15:37:11.836Z,99156
2017-05-31T15:39:40.676Z,99152
2017-05-31T15:42:09.549Z,99160
2017-05-31T15:44:38.392Z,99169
2017-05-31T15:47:07.243Z,99169
2017-05-31T15:49:36.083Z,99160
2017-05-31T15:52:04.940Z,99160
2017-05-31T15:54:33.787Z,99152
2017-05-31T15:57:02.627Z,99155
2017-05-31T15:59:31.475Z,99159
2017-05-31T16:02:00.316Z,99160
2017-05-31T16:04:29.251Z,99145
2017-05-31T16:06:58.108Z,99158
2017-05-31T16:09:27.147Z,99159
2017-05-31T16:11:55.996Z,99162
2017-05-31T16:14:24.847Z,99149
2017-05-31T16:16:53.690Z,99152
2017-05-31T16:19:22.533Z,99158
2017-05-31T16:21:51.379Z,99148
2017-05-31T16:24:20.231Z,99152
2017-05-31T16:26:49.099Z,99150
2017-05-31T16:29:17.939Z,99151
2017-05-31T16:31:46.784Z,99148
2017-05-31T16:34:15.732Z,99143
2017-05-31T16:36:44.583Z,99144
2017-05-31T16:39:12.671Z,99150
2017-05-31T16:41:41.528Z,99152
2017-05-31T16:44:10.475Z,99155
2017-05-31T16:46:39.311Z,99152
2017-05-31T16:49:08.220Z,99145
2017-05-31T16:51:37.056Z,99147
2017-05-31T16:54:05.912Z,99154
2017-05-31T16:56:34.760Z,99140
2017-05-31T16:59:03.600Z,99143
2017-05-31T17:01:32.488Z,99142
2017-05-31T17:04:01.343Z,99144
2017-05-31T17:06:30.233Z,99137
2017-05-31T17:08:59.499Z,99141
2017-05-31T17:11:28.532Z,99143
2017-05-31T17:13:57.734Z,99150
2017-05-31T17:16:26.600Z,99145
2017-05-31T17:18:55.479Z,99143
2017-05-31T17:21:24.400Z,99138
2017-05-31T17:23:53.243Z,99137
2017-05-31T17:26:22.094Z,99135
2017-05-31T17:31:26.240Z,99138
2017-05-31T17:33:55.096Z,99145
2017-05-31T17:36:23.936Z,99147
2017-05-31T17:38:52.811Z,99154
2017-05-31T17:41:21.652Z,99149
2017-05-31T17:43:50.516Z,99144
2017-05-31T17:46:19.428Z,99147
2017-05-31T17:48:48.329Z,99148
2017-05-31T17:51:17.245Z,99154
2017-05-31T17:53:46.092Z,99151
2017-05-31T17:56:14.968Z,99144
2017-05-31T17:58:43.036Z,99157
2017-05-31T18:01:11.921Z,99147
2017-05-31T18:03:40.792Z,99151
2017-05-31T18:06:09.645Z,99150
2017-05-31T18:08:38.512Z,99146
2017-05-31T18:11:07.490Z,99147
2017-05-31T18:13:36.352Z,99151
2017-05-31T18:16:05.236Z,99158
2017-05-31T18:18:34.085Z,99152
2017-05-31T18:21:02.929Z,99159
2017-05-31T18:23:31.809Z,99162
2017-05-31T18:26:00.652Z,99155
2017-05-31T18:28:29.492Z,99161
2017-05-31T18:30:58.339Z,99163
2017-05-31T18:33:27.208Z,99169
2017-05-31T18:35:56.060Z,99157
2017-05-31T18:38:24.912Z,99170
2017-05-31T18:40:53.784Z,99173
2017-05-31T18:43:21.855Z,99170
2017-05-31T18:45:50.704Z,99169
2017-05-31T18:48:19.543Z,99174
2017-05-31T18:50:48.396Z,99174
2017-05-31T18:53:17.240Z,99178
2017-05-31T18:55:46.093Z,99178
2017-05-31T18:58:14.939Z,99184
2017-05-31T19:00:43.808Z,99179
2017-05-31T19:03:12.659Z,99181
2017-05-31T19:05:41.508Z,99176
2017-05-31T19:08:10.394Z,99183
2017-05-31T19:10:39.232Z,99188
2017-05-31T19:13:08.104Z,99188
2017-05-31T19:15:36.952Z,99188
2017-05-31T19:18:05.797Z,99198
2017-05-31T19:20:33.877Z,99196
2017-05-31T19:23:02.765Z,99194
2017-05-31T19:25:31.588Z,99198
2017-05-31T19:28:00.427Z,99206
2017-05-31T19:30:29.277Z,99201
2017-05-31T19:32:58.111Z,99209
2017-05-31T19:35:26.979Z,99213
2017-05-31T19:37:55.832Z,99211
2017-05-31T19:40:23.921Z,99219
2017-05-31T19:42:52.771Z,99223
2017-05-31T19:45:21.611Z,99226
2017-05-31T19:47:50.461Z,99233
2017-05-31T19:50:19.295Z,99235
2017-05-31T19:52:48.147Z,99239
2017-05-31T19:55:16.992Z,99254
2017-05-31T19:57:45.852Z,99248
2017-05-31T20:00:14.852Z,99255
2017-05-31T20:02:43.690Z,99252
2017-05-31T20:05:12.579Z,99253
2017-05-31T20:07:41.428Z,99258
2017-05-31T20:10:10.276Z,99256
2017-05-31T20:12:38.356Z,99259
2017-05-31T20:15:07.225Z,99254
2017-05-31T20:17:36.067Z,99267
2017-05-31T20:20:04.908Z,99258
2017-05-31T20:22:33.768Z,99260
2017-05-31T20:25:02.630Z,99262
2017-05-31T20:27:31.471Z,99258
2017-05-31T20:30:00.307Z,99273
2017-05-31T20:32:29.180Z,99275
2017-05-31T20:34:58.015Z,99278
2017-05-31T20:37:26.863Z,99276
2017-05-31T20:39:55.715Z,99281
2017-05-31T20:42:24.556Z,99278
2017-05-31T20:44:53.403Z,99285
2017-05-31T20:47:22.244Z,99286
2017-05-31T20:49:51.105Z,99282
2017-05-31T20:52:19.943Z,99283
2017-05-31T20:54:48.816Z,99289
2017-05-31T20:57:17.664Z,99281
2017-05-31T20:59:46.508Z,99281
2017-05-31T21:02:15.360Z,99293
2017-05-31T21:04:44.199Z,99291
2017-05-31T21:07:13.052Z,99293
2017-05-31T21:09:41.899Z,99295
2017-05-31T21:12:10.775Z,99297
2017-05-31T21:14:39.612Z,99293
2017-05-31T21:17:07.688Z,99293
2017-05-31T21:19:36.687Z,99291
2017-05-31T21:22:05.524Z,99306
2017-05-31T21:24:34.381Z,99293
2017-05-31T21:27:03.227Z,99298
2017-05-31T21:29:32.067Z,99293
2017-05-31T21:32:01.012Z,99291
2017-05-31T21:34:29.860Z,99297
2017-05-31T21:36:58.708Z,99312
2017-05-31T21:39:26.805Z,99311
2017-05-31T21:41:55.655Z,99313
2017-05-31T21:44:24.496Z,99299
2017-05-31T21:46:53.344Z,99306
2017-05-31T21:49:22.188Z,99312
2017-05-31T21:51:51.051Z,99310
2017-05-31T21:54:19.887Z,99309
2017-05-31T21:56:48.740Z,99305
2017-05-31T21:59:17.584Z,99308
2017-05-31T22:01:46.450Z,99305
2017-05-31T22:04:15.294Z,99310
2017-05-31T22:06:43.359Z,99298
2017-05-31T22:09:12.204Z,99299
2017-05-31T22:11:41.121Z,99313
2017-05-31T22:14:09.971Z,99305
2017-05-31T22:16:38.864Z,99306
2017-05-31T22:19:07.731Z,99298
2017-05-31T22:21:36.561Z,99304
2017-05-31T22:24:05.427Z,99294
2017-05-31T22:26:34.296Z,99300
2017-05-31T22:29:03.131Z,99306
2017-05-31T22:31:31.987Z,99316
2017-05-31T22:36:36.000Z,99297
2017-05-31T22:39:04.091Z,99310
2017-05-31T22:41:32.949Z,99313
2017-05-31T22:44:01.789Z,99315
2017-05-31T22:46:30.660Z,99321
2017-05-31T22:48:59.506Z,99322
2017-05-31T22:51:28.339Z,99320
2017-05-31T22:54:08.065Z,99313
2017-05-31T22:56:36.904Z,99315
2017-05-31T22:59:05.819Z,99313
2017-05-31T23:01:34.669Z,99316
2017-05-31T23:04:02.750Z,99307
2017-05-31T23:06:31.600Z,99314
2017-05-31T23:08:59.705Z,99321
2017-05-31T23:11:28.543Z,99316
2017-05-31T23:13:58.191Z,99315
2017-05-31T23:16:27.058Z,99311
2017-05-31T23:18:55.888Z,99309
2017-05-31T23:21:24.804Z,99313
2017-05-31T23:23:53.649Z,99318
2017-05-31T23:26:22.508Z,99317
2017-05-31T23:28:51.349Z,99308
2017-05-31T23:31:20.217Z,99315
2017-05-31T23:33:49.060Z,99311
2017-05-31T23:36:17.912Z,99309
2017-05-31T23:38:45.993Z,99308
2017-05-31T23:41:14.839Z,99305
2017-05-31T23:43:43.683Z,99312
2017-05-31T23:46:12.523Z,99321
2017-05-31T23:48:41.367Z,99329
2017-05-31T23:51:10.213Z,99335
2017-05-31T23:53:38.308Z,99338
2017-05-31T23:56:07.150Z,99333
2017-05-31T23:58:35.988Z,99333
